createdAt,value
2019-03-15T00:02:21.078Z,64.36
2019-03-15T00:04:53.497Z,64.36
2019-03-15T00:07:25.619Z,64.25
2019-03-15T00:09:57.711Z,64.23
2019-03-15T00:12:30.057Z,64.32
2019-03-15T00:15:02.588Z,64.36
2019-03-15T00:17:37.565Z,64.28
2019-03-15T00:20:10.040Z,64.43
2019-03-15T00:22:42.407Z,64.35
2019-03-15T00:25:14.790Z,64.28
2019-03-15T00:27:47.129Z,64.14
2019-03-15T00:30:19.491Z,64.17
2019-03-15T00:32:51.865Z,64.44
2019-03-15T00:35:24.180Z,64.31
2019-03-15T00:37:56.688Z,64.37
2019-03-15T00:40:29.232Z,64.43
2019-03-15T00:43:01.633Z,64.57
2019-03-15T00:45:34.093Z,64.58
2019-03-15T00:48:06.495Z,64.74
2019-03-15T00:50:38.881Z,64.82
2019-03-15T00:53:11.362Z,64.95
2019-03-15T00:55:45.469Z,64.78
2019-03-15T00:58:17.835Z,64.77
2019-03-15T01:00:49.942Z,64.62
2019-03-15T01:03:22.572Z,64.88
2019-03-15T01:05:55.165Z,64.88
2019-03-15T01:08:27.559Z,65.21
2019-03-15T01:10:59.921Z,65.30
2019-03-15T01:13:32.239Z,65.13
2019-03-15T01:16:04.559Z,65.04
2019-03-15T01:18:36.916Z,65.07
2019-03-15T01:21:09.411Z,64.93
2019-03-15T01:23:41.761Z,64.98
2019-03-15T01:26:14.088Z,65.00
2019-03-15T01:28:46.801Z,64.93
2019-03-15T01:31:19.206Z,65.10
2019-03-15T01:33:51.561Z,64.93
2019-03-15T01:36:23.836Z,64.97
2019-03-15T01:38:56.205Z,65.09
2019-03-15T01:41:28.478Z,65.25
2019-03-15T01:44:00.858Z,65.41
2019-03-15T01:46:33.624Z,65.46
2019-03-15T01:49:06.291Z,65.36
2019-03-15T01:51:38.520Z,65.31
2019-03-15T01:54:10.832Z,65.50
2019-03-15T01:56:43.207Z,65.67
2019-03-15T01:59:15.511Z,65.37
2019-03-15T02:01:47.882Z,65.30
2019-03-15T02:04:20.225Z,65.41
2019-03-15T02:06:52.719Z,65.49
2019-03-15T02:09:25.410Z,65.65
2019-03-15T02:11:57.979Z,65.76
2019-03-15T02:14:30.561Z,65.96
2019-03-15T02:17:03.107Z,66.20
2019-03-15T02:19:35.495Z,66.34
2019-03-15T02:22:08.528Z,66.50
2019-03-15T02:24:41.603Z,66.80
2019-03-15T02:27:14.142Z,67.11
2019-03-15T02:29:47.265Z,67.34
2019-03-15T02:32:19.732Z,67.61
2019-03-15T02:34:53.921Z,67.58
2019-03-15T02:37:26.524Z,67.73
2019-03-15T02:39:59.396Z,67.64
2019-03-15T02:42:32.164Z,67.67
2019-03-15T02:45:06.187Z,67.71
2019-03-15T02:47:40.000Z,67.68
2019-03-15T02:50:12.896Z,67.60
2019-03-15T02:52:45.178Z,67.62
2019-03-15T02:55:17.825Z,67.60
2019-03-15T02:57:50.051Z,67.55
2019-03-15T03:00:22.374Z,67.28
2019-03-15T03:02:54.727Z,67.30
2019-03-15T03:05:27.322Z,67.07
2019-03-15T03:07:59.701Z,66.98
2019-03-15T03:10:32.384Z,66.85
2019-03-15T03:13:04.753Z,66.61
2019-03-15T03:15:36.946Z,66.32
2019-03-15T03:18:09.244Z,66.26
2019-03-15T03:20:41.958Z,66.01
2019-03-15T03:23:14.414Z,65.97
2019-03-15T03:25:46.710Z,65.92
2019-03-15T03:28:18.878Z,65.88
2019-03-15T03:30:51.274Z,65.78
2019-03-15T03:33:23.645Z,65.88
2019-03-15T03:35:57.065Z,65.79
2019-03-15T03:38:29.625Z,65.73
2019-03-15T03:41:01.873Z,65.85
2019-03-15T03:43:34.254Z,65.71
2019-03-15T03:46:06.622Z,65.63
2019-03-15T03:48:39.285Z,65.66
2019-03-15T03:51:12.938Z,65.65
2019-03-15T03:53:45.989Z,65.41
2019-03-15T03:56:18.298Z,65.33
2019-03-15T03:58:50.981Z,65.31
2019-03-15T04:01:23.343Z,65.12
2019-03-15T04:03:55.689Z,65.26
2019-03-15T04:06:27.966Z,65.42
2019-03-15T04:09:00.951Z,65.44
2019-03-15T04:11:35.356Z,65.53
2019-03-15T04:14:07.952Z,65.35
2019-03-15T04:16:40.591Z,65.54
2019-03-15T04:19:12.898Z,65.72
2019-03-15T04:21:45.647Z,65.84
2019-03-15T04:24:17.941Z,66.03
2019-03-15T04:26:50.301Z,66.30
2019-03-15T04:29:23.069Z,66.37
2019-03-15T04:31:56.621Z,66.57
2019-03-15T04:34:29.014Z,66.89
2019-03-15T04:37:01.558Z,67.00
2019-03-15T04:39:34.333Z,67.34
2019-03-15T04:42:07.614Z,67.13
2019-03-15T04:44:39.837Z,67.18
2019-03-15T04:47:12.220Z,67.46
2019-03-15T04:49:44.823Z,67.35
2019-03-15T04:52:18.420Z,67.39
2019-03-15T04:54:50.735Z,67.35
2019-03-15T04:57:23.289Z,67.23
2019-03-15T04:59:57.765Z,67.70
2019-03-15T05:02:30.205Z,67.88
2019-03-15T05:05:03.705Z,68.22
2019-03-15T05:07:36.075Z,68.43
2019-03-15T05:10:08.468Z,68.82
2019-03-15T05:12:40.756Z,68.86
2019-03-15T05:15:13.487Z,69.01
2019-03-15T05:17:45.638Z,69.08
2019-03-15T05:20:21.018Z,69.55
2019-03-15T05:22:52.561Z,69.52
2019-03-15T05:25:24.867Z,69.64
2019-03-15T05:27:57.389Z,69.19
2019-03-15T05:30:29.963Z,69.67
2019-03-15T05:33:02.378Z,70.20
2019-03-15T05:35:34.853Z,70.18
2019-03-15T05:38:08.636Z,70.57
2019-03-15T05:40:41.743Z,70.90
2019-03-15T05:43:14.433Z,71.34
2019-03-15T05:45:46.793Z,71.80
2019-03-15T05:48:19.122Z,72.33
2019-03-15T05:50:51.405Z,72.73
2019-03-15T05:53:23.529Z,73.23
2019-03-15T05:55:55.998Z,73.35
2019-03-15T05:58:28.541Z,73.67
2019-03-15T06:01:00.913Z,73.82
2019-03-15T06:03:33.496Z,74.05
2019-03-15T06:06:05.934Z,74.21
2019-03-15T06:08:38.257Z,74.27
2019-03-15T06:11:12.453Z,74.54
2019-03-15T06:13:45.071Z,74.95
2019-03-15T06:16:17.708Z,75.30
2019-03-15T06:18:49.965Z,75.48
2019-03-15T06:21:22.125Z,75.72
2019-03-15T06:23:54.696Z,75.69
2019-03-15T06:26:27.049Z,75.82
2019-03-15T06:29:01.637Z,75.90
2019-03-15T06:31:34.295Z,76.15
2019-03-15T06:34:06.689Z,76.09
2019-03-15T06:36:40.061Z,76.03
2019-03-15T06:39:12.396Z,76.14
2019-03-15T06:41:46.265Z,76.24
2019-03-15T06:44:19.040Z,76.41
2019-03-15T06:46:51.288Z,76.52
2019-03-15T06:49:24.005Z,76.63
2019-03-15T06:51:57.914Z,76.81
2019-03-15T06:54:31.361Z,76.85
2019-03-15T06:57:03.769Z,77.05
2019-03-15T06:59:37.491Z,77.21
2019-03-15T07:02:11.002Z,77.36
2019-03-15T07:04:44.084Z,77.50
2019-03-15T07:07:16.605Z,77.54
2019-03-15T07:09:49.056Z,77.50
2019-03-15T07:12:21.722Z,77.65
2019-03-15T07:14:54.551Z,78.00
2019-03-15T07:17:27.232Z,78.23
2019-03-15T07:19:59.407Z,78.43
2019-03-15T07:22:34.261Z,78.50
2019-03-15T07:25:06.533Z,78.49
2019-03-15T07:27:42.198Z,78.67
2019-03-15T07:30:13.021Z,78.76
2019-03-15T07:32:46.202Z,78.89
2019-03-15T07:35:19.028Z,79.08
2019-03-15T07:37:51.341Z,79.16
2019-03-15T07:40:23.782Z,79.20
2019-03-15T07:42:59.758Z,79.17
2019-03-15T07:45:30.402Z,79.18
2019-03-15T07:48:03.078Z,79.18
2019-03-15T07:50:35.384Z,79.41
2019-03-15T07:53:07.987Z,79.55
2019-03-15T07:55:40.363Z,79.62
2019-03-15T07:58:12.612Z,79.65
2019-03-15T08:00:44.956Z,79.64
2019-03-15T08:03:17.178Z,79.59
2019-03-15T08:05:49.759Z,79.62
2019-03-15T08:08:23.690Z,79.59
2019-03-15T08:10:55.970Z,79.63
2019-03-15T08:13:28.424Z,79.76
2019-03-15T08:16:01.597Z,80.08
2019-03-15T08:18:33.959Z,80.33
2019-03-15T08:21:06.452Z,80.55
2019-03-15T08:23:38.570Z,81.19
2019-03-15T08:26:10.909Z,80.91
2019-03-15T08:28:43.203Z,80.73
2019-03-15T08:31:23.281Z,80.33
2019-03-15T08:33:57.292Z,79.90
2019-03-15T08:36:29.579Z,79.12
2019-03-15T08:39:02.008Z,78.47
2019-03-15T08:41:34.486Z,78.21
2019-03-15T08:44:06.892Z,77.97
2019-03-15T08:46:39.207Z,77.79
2019-03-15T08:49:11.562Z,77.65
2019-03-15T08:51:43.918Z,77.37
2019-03-15T08:54:16.391Z,76.91
2019-03-15T08:56:48.922Z,76.05
2019-03-15T08:59:21.481Z,75.56
2019-03-15T09:01:53.908Z,75.16
2019-03-15T09:04:26.197Z,75.08
2019-03-15T09:07:00.783Z,74.77
2019-03-15T09:09:35.962Z,74.44
2019-03-15T09:12:07.994Z,74.17
2019-03-15T09:14:40.564Z,74.16
2019-03-15T09:17:12.930Z,74.11
2019-03-15T09:19:45.412Z,73.59
2019-03-15T09:22:17.928Z,73.25
2019-03-15T09:24:50.257Z,73.39
2019-03-15T09:27:22.786Z,73.52
2019-03-15T09:29:55.131Z,74.01
2019-03-15T09:32:27.392Z,74.06
2019-03-15T09:34:59.663Z,74.01
2019-03-15T09:37:34.014Z,73.71
2019-03-15T09:40:06.221Z,72.47
2019-03-15T09:42:38.508Z,71.49
2019-03-15T09:45:10.845Z,70.97
2019-03-15T09:47:43.103Z,70.77
2019-03-15T09:50:26.505Z,69.85
2019-03-15T09:52:51.655Z,69.48
2019-03-15T09:55:32.925Z,69.36
2019-03-15T09:57:57.757Z,69.26
2019-03-15T10:00:30.123Z,69.27
2019-03-15T10:03:03.543Z,68.61
2019-03-15T10:05:35.746Z,68.80
2019-03-15T10:08:08.105Z,68.10
2019-03-15T10:10:40.641Z,68.09
2019-03-15T10:13:14.983Z,67.68
2019-03-15T10:15:47.364Z,68.04
2019-03-15T10:18:19.616Z,67.72
2019-03-15T10:20:52.374Z,67.43
2019-03-15T10:23:24.616Z,68.46
2019-03-15T10:25:56.932Z,70.42
2019-03-15T10:28:29.483Z,72.18
2019-03-15T10:31:02.079Z,72.97
2019-03-15T10:33:35.402Z,73.14
2019-03-15T10:36:07.636Z,73.53
2019-03-15T10:38:39.868Z,73.65
2019-03-15T10:41:12.168Z,73.29
2019-03-15T10:43:44.461Z,72.65
2019-03-15T10:46:16.885Z,71.96
2019-03-15T10:48:50.248Z,70.75
2019-03-15T10:51:24.146Z,70.88
2019-03-15T10:53:56.670Z,70.04
2019-03-15T10:56:29.147Z,68.99
2019-03-15T10:59:01.975Z,69.93
2019-03-15T11:01:35.405Z,70.08
2019-03-15T11:04:07.684Z,69.64
2019-03-15T11:06:42.295Z,69.07
2019-03-15T11:09:14.729Z,69.77
2019-03-15T11:11:47.029Z,69.63
2019-03-15T11:14:19.564Z,68.89
2019-03-15T11:16:52.122Z,68.40
2019-03-15T11:19:24.765Z,68.48
2019-03-15T11:21:57.208Z,68.25
2019-03-15T11:24:29.699Z,67.78
2019-03-15T11:27:02.255Z,66.64
2019-03-15T11:29:34.645Z,66.47
2019-03-15T11:32:07.009Z,66.39
2019-03-15T11:34:39.513Z,65.05
2019-03-15T11:37:11.886Z,64.25
2019-03-15T11:39:44.424Z,64.08
2019-03-15T11:42:16.738Z,62.60
2019-03-15T11:44:49.165Z,62.88
2019-03-15T11:47:21.437Z,61.93
2019-03-15T11:49:53.668Z,61.40
2019-03-15T11:52:25.945Z,60.93
2019-03-15T11:54:58.285Z,61.19
2019-03-15T11:57:30.643Z,60.79
2019-03-15T12:00:02.898Z,58.64
2019-03-15T12:02:35.675Z,58.63
2019-03-15T12:05:08.284Z,58.36
2019-03-15T12:07:40.823Z,58.91
2019-03-15T12:10:13.067Z,58.98
2019-03-15T12:12:45.465Z,59.07
2019-03-15T12:15:17.795Z,59.93
2019-03-15T12:17:50.044Z,60.86
2019-03-15T12:20:22.488Z,61.18
2019-03-15T12:22:54.706Z,60.75
2019-03-15T12:25:26.977Z,60.69
2019-03-15T12:27:59.602Z,61.82
2019-03-15T12:30:32.022Z,63.75
2019-03-15T12:33:04.271Z,66.53
2019-03-15T12:35:36.593Z,69.07
2019-03-15T12:38:08.937Z,70.75
2019-03-15T12:40:42.304Z,72.93
2019-03-15T12:43:14.548Z,74.11
2019-03-15T12:45:46.831Z,73.99
2019-03-15T12:48:19.151Z,73.58
2019-03-15T12:50:51.475Z,73.01
2019-03-15T12:53:23.740Z,72.41
2019-03-15T12:55:55.992Z,72.15
2019-03-15T12:58:28.239Z,72.36
2019-03-15T13:01:00.478Z,71.95
2019-03-15T13:03:32.859Z,72.63
2019-03-15T13:06:05.187Z,73.09
2019-03-15T13:08:37.456Z,72.61
2019-03-15T13:11:09.687Z,72.65
2019-03-15T13:13:41.984Z,71.79
2019-03-15T13:16:14.251Z,71.50
2019-03-15T13:18:46.469Z,71.81
2019-03-15T13:21:20.754Z,71.05
2019-03-15T13:23:53.063Z,71.20
2019-03-15T13:26:25.121Z,71.50
2019-03-15T13:28:57.510Z,71.37
2019-03-15T13:31:29.822Z,71.83
2019-03-15T13:34:02.050Z,72.28
2019-03-15T13:36:34.391Z,72.09
2019-03-15T13:39:06.607Z,71.50
2019-03-15T13:41:39.220Z,71.38
2019-03-15T13:44:11.452Z,71.89
2019-03-15T13:46:43.881Z,71.78
2019-03-15T13:49:16.096Z,71.72
2019-03-15T13:51:48.351Z,72.76
2019-03-15T13:54:20.770Z,73.75
2019-03-15T13:56:53.223Z,74.85
2019-03-15T13:59:26.574Z,75.33
2019-03-15T14:01:58.845Z,76.09
2019-03-15T14:04:31.158Z,76.31
2019-03-15T14:07:03.979Z,76.42
2019-03-15T14:09:36.309Z,77.15
2019-03-15T14:12:08.665Z,77.08
2019-03-15T14:14:40.901Z,77.54
2019-03-15T14:17:13.436Z,77.08
2019-03-15T14:19:45.679Z,77.18
2019-03-15T14:22:17.952Z,77.17
2019-03-15T14:24:50.212Z,77.17
2019-03-15T14:27:36.447Z,76.46
2019-03-15T14:29:58.133Z,75.47
2019-03-15T14:32:30.359Z,74.95
2019-03-15T14:35:02.613Z,74.83
2019-03-15T14:37:35.103Z,75.12
2019-03-15T14:40:07.609Z,75.21
2019-03-15T14:42:40.328Z,75.46
2019-03-15T14:45:12.729Z,75.48
2019-03-15T14:47:45.085Z,75.45
2019-03-15T14:50:17.304Z,75.46
2019-03-15T14:52:49.584Z,75.66
2019-03-15T14:55:21.939Z,75.82
2019-03-15T14:57:54.187Z,76.44
2019-03-15T15:00:26.433Z,76.69
2019-03-15T15:02:58.689Z,76.91
2019-03-15T15:05:33.075Z,76.96
2019-03-15T15:08:05.270Z,77.73
2019-03-15T15:10:37.592Z,78.45
2019-03-15T15:13:09.959Z,76.79
2019-03-15T15:15:42.234Z,76.64
2019-03-15T15:18:14.507Z,77.34
2019-03-15T15:20:46.711Z,77.28
2019-03-15T15:23:19.067Z,76.76
2019-03-15T15:25:51.401Z,76.65
2019-03-15T15:28:23.637Z,76.62
2019-03-15T15:30:55.882Z,76.44
2019-03-15T15:33:28.215Z,76.16
2019-03-15T15:36:00.562Z,75.75
2019-03-15T15:38:32.804Z,75.80
2019-03-15T15:41:05.243Z,75.19
2019-03-15T15:43:38.601Z,74.61
2019-03-15T15:46:13.184Z,74.33
2019-03-15T15:48:45.452Z,74.68
2019-03-15T15:51:17.751Z,73.82
2019-03-15T15:53:50.437Z,74.31
2019-03-15T15:56:22.875Z,73.70
2019-03-15T15:58:55.179Z,73.42
2019-03-15T16:01:27.715Z,73.56
2019-03-15T16:03:59.907Z,72.95
2019-03-15T16:06:32.433Z,73.75
2019-03-15T16:09:04.680Z,72.91
2019-03-15T16:11:38.591Z,73.52
2019-03-15T16:14:10.803Z,73.17
2019-03-15T16:16:43.111Z,73.20
2019-03-15T16:19:15.525Z,73.08
2019-03-15T16:21:47.821Z,72.35
2019-03-15T16:24:20.148Z,72.12
2019-03-15T16:26:52.512Z,71.55
2019-03-15T16:29:24.974Z,71.56
2019-03-15T16:31:57.475Z,71.75
2019-03-15T16:34:29.934Z,71.31
2019-03-15T16:37:02.310Z,71.01
2019-03-15T16:39:34.684Z,71.22
2019-03-15T16:42:07.001Z,71.12
2019-03-15T16:44:39.581Z,71.05
2019-03-15T16:47:11.930Z,71.27
2019-03-15T16:49:44.303Z,71.46
2019-03-15T16:52:16.603Z,70.92
2019-03-15T16:54:49.819Z,71.32
2019-03-15T16:57:22.481Z,71.03
2019-03-15T16:59:55.051Z,70.86
2019-03-15T17:02:29.172Z,70.15
2019-03-15T17:05:02.049Z,69.49
2019-03-15T17:07:34.747Z,68.55
2019-03-15T17:10:07.587Z,68.09
2019-03-15T17:12:39.881Z,68.93
2019-03-15T17:15:12.162Z,68.80
2019-03-15T17:17:44.638Z,69.04
2019-03-15T17:20:18.456Z,69.23
2019-03-15T17:22:52.228Z,69.12
2019-03-15T17:25:24.578Z,68.64
2019-03-15T17:27:56.902Z,68.06
2019-03-15T17:30:31.106Z,68.36
2019-03-15T17:33:06.157Z,67.98
2019-03-15T17:35:37.495Z,67.45
2019-03-15T17:38:09.860Z,67.75
2019-03-15T17:40:42.199Z,67.29
2019-03-15T17:43:14.425Z,65.60
2019-03-15T17:45:46.781Z,66.15
2019-03-15T17:48:18.973Z,65.61
2019-03-15T17:50:51.237Z,64.95
2019-03-15T17:53:24.561Z,64.48
2019-03-15T17:55:56.850Z,63.80
2019-03-15T17:58:29.343Z,63.27
2019-03-15T18:01:01.846Z,62.77
2019-03-15T18:03:34.243Z,62.44
2019-03-15T18:06:07.827Z,62.16
2019-03-15T18:08:40.061Z,60.72
2019-03-15T18:11:12.412Z,60.73
2019-03-15T18:13:44.687Z,60.75
2019-03-15T18:16:16.968Z,60.48
2019-03-15T18:18:49.390Z,61.25
2019-03-15T18:21:21.626Z,60.78
2019-03-15T18:23:53.983Z,61.06
2019-03-15T18:26:26.662Z,61.18
2019-03-15T18:28:59.207Z,61.55
2019-03-15T18:31:31.472Z,61.84
2019-03-15T18:34:03.864Z,62.18
2019-03-15T18:36:36.391Z,61.95
2019-03-15T18:39:08.762Z,62.43
2019-03-15T18:41:41.611Z,62.05
2019-03-15T18:44:13.879Z,62.50
2019-03-15T18:46:46.529Z,62.81
2019-03-15T18:49:18.972Z,62.21
2019-03-15T18:51:52.473Z,62.49
2019-03-15T18:54:24.702Z,62.56
2019-03-15T18:56:57.015Z,62.59
2019-03-15T18:59:39.357Z,62.53
2019-03-15T19:02:03.416Z,62.83
2019-03-15T19:04:35.897Z,63.04
2019-03-15T19:07:08.307Z,63.09
2019-03-15T19:09:40.587Z,63.53
2019-03-15T19:12:12.963Z,63.66
2019-03-15T19:14:45.861Z,63.13
2019-03-15T19:17:18.442Z,63.35
2019-03-15T19:19:50.705Z,63.70
2019-03-15T19:22:23.209Z,63.64
2019-03-15T19:24:55.590Z,63.58
2019-03-15T19:27:27.884Z,63.52
2019-03-15T19:30:00.392Z,63.55
2019-03-15T19:32:33.613Z,63.43
2019-03-15T19:35:06.389Z,63.41
2019-03-15T19:37:38.741Z,63.50
2019-03-15T19:40:11.032Z,63.60
2019-03-15T19:42:45.520Z,63.79
2019-03-15T19:45:17.550Z,64.25
2019-03-15T19:47:49.894Z,64.38
2019-03-15T19:50:24.583Z,64.83
2019-03-15T19:52:57.122Z,65.05
2019-03-15T19:55:32.217Z,65.48
2019-03-15T19:58:04.707Z,65.49
2019-03-15T20:00:37.348Z,65.31
2019-03-15T20:03:10.781Z,65.37
2019-03-15T20:05:43.480Z,65.18
2019-03-15T20:08:15.841Z,65.25
2019-03-15T20:10:48.209Z,65.18
2019-03-15T20:13:20.516Z,65.04
2019-03-15T20:15:53.249Z,65.06
2019-03-15T20:18:25.698Z,65.11
2019-03-15T20:20:58.227Z,65.10
2019-03-15T20:23:30.980Z,64.89
2019-03-15T20:26:03.524Z,64.88
2019-03-15T20:28:35.884Z,64.87
2019-03-15T20:31:09.217Z,64.87
2019-03-15T20:33:41.543Z,64.85
2019-03-15T20:36:13.838Z,65.00
2019-03-15T20:38:47.105Z,65.05
2019-03-15T20:41:19.807Z,65.08
2019-03-15T20:43:52.333Z,65.43
2019-03-15T20:46:35.150Z,65.55
2019-03-15T20:48:58.673Z,65.28
2019-03-15T20:51:31.022Z,65.65
2019-03-15T20:54:03.727Z,65.46
2019-03-15T20:56:35.824Z,65.70
2019-03-15T20:59:09.437Z,65.89
2019-03-15T21:01:41.769Z,65.82
2019-03-15T21:04:14.066Z,65.96
2019-03-15T21:06:46.330Z,66.04
2019-03-15T21:09:18.709Z,66.09
2019-03-15T21:11:50.929Z,65.82
2019-03-15T21:14:23.262Z,65.53
2019-03-15T21:16:55.564Z,65.39
2019-03-15T21:19:27.798Z,65.24
2019-03-15T21:22:00.165Z,64.90
2019-03-15T21:24:32.398Z,64.97
2019-03-15T21:27:04.664Z,65.23
2019-03-15T21:29:36.921Z,65.08
2019-03-15T21:32:09.250Z,65.12
2019-03-15T21:34:41.818Z,65.16
2019-03-15T21:37:14.052Z,64.98
2019-03-15T21:39:46.322Z,64.95
2019-03-15T21:42:18.359Z,64.48
2019-03-15T21:44:50.741Z,64.17
2019-03-15T21:47:23.036Z,63.77
2019-03-15T21:49:55.300Z,63.24
2019-03-15T21:52:27.640Z,62.85
2019-03-15T21:55:00.022Z,62.34
2019-03-15T21:57:32.286Z,62.33
2019-03-15T22:00:05.723Z,62.32
2019-03-15T22:02:38.183Z,62.38
2019-03-15T22:05:10.881Z,62.11
2019-03-15T22:07:44.118Z,61.86
2019-03-15T22:10:16.334Z,62.07
2019-03-15T22:12:48.601Z,62.29
2019-03-15T22:15:20.906Z,62.62
2019-03-15T22:17:53.273Z,62.63
2019-03-15T22:20:25.726Z,62.90
2019-03-15T22:22:58.161Z,63.06
2019-03-15T22:25:30.524Z,62.96
2019-03-15T22:28:02.727Z,62.47
2019-03-15T22:30:35.040Z,61.88
2019-03-15T22:33:08.448Z,61.48
2019-03-15T22:35:41.906Z,61.40
2019-03-15T22:38:25.604Z,59.19
2019-03-15T22:40:48.298Z,59.07
2019-03-15T22:43:20.607Z,57.98
2019-03-15T22:45:52.826Z,57.83
2019-03-15T22:48:25.099Z,56.87
2019-03-15T22:50:57.237Z,56.95
2019-03-15T22:53:29.885Z,56.49
2019-03-15T22:56:02.611Z,56.41
2019-03-15T22:58:35.556Z,56.27
2019-03-15T23:01:07.806Z,55.86
2019-03-15T23:03:41.908Z,55.27
2019-03-15T23:06:14.212Z,54.64
2019-03-15T23:08:46.439Z,54.80
2019-03-15T23:11:18.751Z,54.92
2019-03-15T23:13:50.995Z,54.76
2019-03-15T23:16:23.202Z,54.78
2019-03-15T23:18:55.532Z,55.36
2019-03-15T23:21:27.748Z,54.83
2019-03-15T23:23:59.994Z,55.65
2019-03-15T23:26:32.298Z,55.31
2019-03-15T23:29:04.670Z,55.09
2019-03-15T23:31:43.406Z,55.05
2019-03-15T23:34:11.150Z,54.94
2019-03-15T23:36:43.418Z,55.53
2019-03-15T23:39:16.825Z,55.15
2019-03-15T23:41:49.031Z,55.46
2019-03-15T23:44:21.262Z,55.88
2019-03-15T23:46:54.026Z,55.85
2019-03-15T23:49:26.238Z,55.89
2019-03-15T23:51:58.488Z,55.81
2019-03-15T23:54:30.781Z,55.79
2019-03-15T23:57:03.030Z,56.07
2019-03-15T23:59:35.647Z,55.93
